createdAt,value
2019-05-30T00:03:39.457Z,3.70
2019-05-30T00:08:45.710Z,3.10
2019-05-30T00:13:52.127Z,3.55
2019-05-30T00:18:58.769Z,3.10
2019-05-30T00:24:06.173Z,2.98
2019-05-30T00:29:12.723Z,3.05
2019-05-30T00:34:19.049Z,3.55
2019-05-30T00:39:25.405Z,3.27
2019-05-30T00:44:31.718Z,3.22
2019-05-30T00:49:37.928Z,2.70
2019-05-30T00:54:44.144Z,3.10
2019-05-30T00:59:50.393Z,2.85
2019-05-30T01:04:57.056Z,2.80
2019-05-30T01:10:03.264Z,2.35
2019-05-30T01:15:10.106Z,2.90
2019-05-30T01:20:17.253Z,3.27
2019-05-30T01:25:23.638Z,2.70
2019-05-30T01:30:31.175Z,3.20
2019-05-30T01:35:37.553Z,2.72
2019-05-30T01:40:43.820Z,2.70
2019-05-30T01:45:50.107Z,3.15
2019-05-30T01:50:56.589Z,2.65
2019-05-30T01:56:02.978Z,3.10
2019-05-30T02:01:23.639Z,2.90
2019-05-30T02:06:17.732Z,2.83
2019-05-30T02:11:23.976Z,2.90
2019-05-30T02:16:30.492Z,2.70
2019-05-30T02:21:36.780Z,2.83
2019-05-30T02:26:43.382Z,2.37
2019-05-30T02:31:49.818Z,2.65
2019-05-30T02:36:56.211Z,2.70
2019-05-30T02:42:03.290Z,2.35
2019-05-30T02:47:11.577Z,3.40
2019-05-30T02:52:18.176Z,2.87
2019-05-30T02:57:24.494Z,2.75
2019-05-30T03:02:30.720Z,2.42
2019-05-30T03:07:37.145Z,2.50
2019-05-30T03:12:43.495Z,2.60
2019-05-30T03:17:49.674Z,2.67
2019-05-30T03:22:55.977Z,3.30
2019-05-30T03:28:02.735Z,3.20
2019-05-30T03:33:24.682Z,5.87
2019-05-30T03:38:17.614Z,5.30
2019-05-30T03:43:24.019Z,4.55
2019-05-30T03:48:31.812Z,5.45
2019-05-30T03:53:38.169Z,5.92
2019-05-30T03:58:51.240Z,6.00
2019-05-30T04:04:09.161Z,6.10
2019-05-30T04:09:22.441Z,5.87
2019-05-30T04:14:29.148Z,5.25
2019-05-30T04:19:35.351Z,5.30
2019-05-30T04:24:41.922Z,6.10
2019-05-30T04:29:48.069Z,5.67
2019-05-30T04:34:54.459Z,6.37
2019-05-30T04:40:00.727Z,5.30
2019-05-30T04:45:07.391Z,4.55
2019-05-30T04:50:14.338Z,5.20
2019-05-30T04:55:22.989Z,6.65
2019-05-30T05:00:28.742Z,6.05
2019-05-30T05:05:35.096Z,5.62
2019-05-30T05:10:41.720Z,5.45
2019-05-30T05:15:47.648Z,6.05
2019-05-30T05:20:54.430Z,5.70
2019-05-30T05:26:01.607Z,5.33
2019-05-30T05:31:07.941Z,4.37
2019-05-30T05:36:14.826Z,4.30
2019-05-30T05:41:22.317Z,5.17
2019-05-30T05:46:28.785Z,5.92
2019-05-30T05:51:35.130Z,7.60
2019-05-30T05:56:41.799Z,13.95
2019-05-30T06:01:48.331Z,8.10
2019-05-30T06:06:54.972Z,6.08
2019-05-30T06:12:01.362Z,6.12
2019-05-30T06:17:07.846Z,6.65
2019-05-30T06:22:14.437Z,6.92
2019-05-30T06:27:21.828Z,3.95
2019-05-30T06:32:28.874Z,3.60
2019-05-30T06:37:35.689Z,3.67
2019-05-30T06:42:42.132Z,2.85
2019-05-30T06:47:48.473Z,3.05
2019-05-30T06:52:54.605Z,2.47
2019-05-30T06:58:00.790Z,2.50
2019-05-30T07:03:07.144Z,2.40
2019-05-30T07:08:13.415Z,2.30
2019-05-30T07:13:19.591Z,1.90
2019-05-30T07:18:27.435Z,1.77
2019-05-30T07:23:34.419Z,2.35
2019-05-30T07:28:40.575Z,2.00
2019-05-30T07:33:47.014Z,1.75
2019-05-30T07:38:53.351Z,1.85
2019-05-30T07:44:00.294Z,1.70
2019-05-30T07:49:06.782Z,1.62
2019-05-30T07:54:13.269Z,1.70
2019-05-30T07:59:19.679Z,1.75
2019-05-30T08:04:26.032Z,1.40
2019-05-30T08:09:33.100Z,1.20
2019-05-30T08:14:39.708Z,1.62
2019-05-30T08:19:46.007Z,1.12
2019-05-30T08:24:52.164Z,1.37
2019-05-30T08:29:58.307Z,1.50
2019-05-30T08:35:04.836Z,1.50
2019-05-30T08:40:12.879Z,1.32
2019-05-30T08:45:19.516Z,1.40
2019-05-30T08:50:26.839Z,1.40
2019-05-30T08:55:32.880Z,1.17
2019-05-30T09:00:39.609Z,1.30
2019-05-30T09:05:59.339Z,1.22
2019-05-30T09:10:54.050Z,1.30
2019-05-30T09:16:00.640Z,1.30
2019-05-30T09:21:06.944Z,1.52
2019-05-30T09:26:13.248Z,1.02
2019-05-30T09:31:19.383Z,1.05
2019-05-30T09:36:25.559Z,1.60
2019-05-30T09:41:32.046Z,1.25
2019-05-30T09:46:40.860Z,1.50
2019-05-30T09:51:47.055Z,1.17
2019-05-30T09:56:57.008Z,1.00
2019-05-30T10:02:02.158Z,0.80
2019-05-30T10:07:08.631Z,1.27
2019-05-30T10:12:15.101Z,0.95
2019-05-30T10:17:23.672Z,1.00
2019-05-30T10:22:29.937Z,1.50
2019-05-30T10:27:36.203Z,2.47
2019-05-30T10:32:42.523Z,2.40
2019-05-30T10:37:49.278Z,2.50
2019-05-30T10:42:56.904Z,2.75
2019-05-30T10:48:03.490Z,1.92
2019-05-30T10:53:09.556Z,2.37
2019-05-30T10:58:16.059Z,2.58
2019-05-30T11:03:24.138Z,2.40
2019-05-30T11:08:32.284Z,2.45
2019-05-30T11:13:38.694Z,2.30
2019-05-30T11:18:44.644Z,2.33
2019-05-30T11:23:51.394Z,2.77
2019-05-30T11:28:59.254Z,2.80
2019-05-30T11:34:05.683Z,2.17
2019-05-30T11:39:12.141Z,2.47
2019-05-30T11:44:18.314Z,2.17
2019-05-30T11:49:24.659Z,1.85
2019-05-30T11:54:31.113Z,2.15
2019-05-30T11:59:37.744Z,2.47
2019-05-30T12:04:44.110Z,2.20
2019-05-30T12:09:50.774Z,2.00
2019-05-30T12:14:57.428Z,2.35
2019-05-30T12:20:03.715Z,1.98
2019-05-30T12:25:10.128Z,1.72
2019-05-30T12:30:16.643Z,2.10
2019-05-30T12:35:24.310Z,2.00
2019-05-30T12:40:30.804Z,2.20
2019-05-30T12:45:37.112Z,2.40
2019-05-30T12:50:43.352Z,1.95
2019-05-30T12:55:49.675Z,2.20
2019-05-30T13:00:56.641Z,2.10
2019-05-30T13:06:03.412Z,1.92
2019-05-30T13:11:09.753Z,1.85
2019-05-30T13:16:15.814Z,1.75
2019-05-30T13:21:22.121Z,1.95
2019-05-30T13:26:28.303Z,2.20
2019-05-30T13:31:34.955Z,2.02
2019-05-30T13:36:41.544Z,2.00
2019-05-30T13:41:48.058Z,1.80
2019-05-30T13:46:54.293Z,1.77
2019-05-30T13:52:00.924Z,1.92
2019-05-30T13:57:07.823Z,1.95
2019-05-30T14:02:14.118Z,1.85
2019-05-30T14:07:20.543Z,1.82
2019-05-30T14:12:26.807Z,1.70
2019-05-30T14:17:33.273Z,1.37
2019-05-30T14:22:39.856Z,1.95
2019-05-30T14:27:46.232Z,1.77
2019-05-30T14:32:52.462Z,1.60
2019-05-30T14:37:59.354Z,1.60
2019-05-30T14:43:07.193Z,1.70
2019-05-30T14:48:13.865Z,1.95
2019-05-30T14:53:20.434Z,1.80
2019-05-30T14:58:26.751Z,1.80
2019-05-30T15:03:32.951Z,1.92
2019-05-30T15:08:39.208Z,1.70
2019-05-30T15:13:45.884Z,1.65
2019-05-30T15:18:54.815Z,1.40
2019-05-30T15:24:01.378Z,1.90
2019-05-30T15:29:08.024Z,1.70
2019-05-30T15:34:14.686Z,1.70
2019-05-30T15:39:32.456Z,1.75
2019-05-30T15:44:29.075Z,1.50
2019-05-30T15:49:35.554Z,1.80
2019-05-30T15:54:41.813Z,1.70
2019-05-30T15:59:48.125Z,2.20
2019-05-30T16:04:54.463Z,1.50
2019-05-30T16:10:00.771Z,1.50
2019-05-30T16:15:07.253Z,1.75
2019-05-30T16:20:15.965Z,1.70
2019-05-30T16:25:22.548Z,1.70
2019-05-30T16:30:28.976Z,1.35
2019-05-30T16:35:35.283Z,1.52
2019-05-30T16:40:41.555Z,1.52
2019-05-30T16:45:47.869Z,1.80
2019-05-30T16:50:54.504Z,1.40
2019-05-30T16:56:00.711Z,1.57
2019-05-30T17:01:07.157Z,1.40
2019-05-30T17:06:18.133Z,1.40
2019-05-30T17:11:25.516Z,1.80
2019-05-30T17:16:32.050Z,1.55
2019-05-30T17:21:37.939Z,1.65
2019-05-30T17:26:44.251Z,1.55
2019-05-30T17:31:50.710Z,1.47
2019-05-30T17:36:57.084Z,1.27
2019-05-30T17:42:03.065Z,1.77
2019-05-30T17:47:09.378Z,1.32
2019-05-30T17:52:16.083Z,1.30
2019-05-30T17:57:22.325Z,1.40
2019-05-30T18:02:28.626Z,1.45
2019-05-30T18:07:34.783Z,1.20
2019-05-30T18:12:40.983Z,1.30
2019-05-30T18:17:47.254Z,1.10
2019-05-30T18:22:53.825Z,1.22
2019-05-30T18:28:00.373Z,1.47
2019-05-30T18:33:06.902Z,1.20
2019-05-30T18:38:14.418Z,1.50
2019-05-30T18:43:20.777Z,1.50
2019-05-30T18:48:27.344Z,1.50
2019-05-30T18:53:33.772Z,1.50
2019-05-30T18:58:40.138Z,1.40
2019-05-30T19:03:48.052Z,1.50
2019-05-30T19:08:54.212Z,2.08
2019-05-30T19:14:00.629Z,1.35
2019-05-30T19:19:07.089Z,1.80
2019-05-30T19:24:13.218Z,1.55
2019-05-30T19:29:19.431Z,1.45
2019-05-30T19:34:26.616Z,1.80
2019-05-30T19:39:33.623Z,1.77
2019-05-30T19:44:41.585Z,1.40
2019-05-30T19:49:48.431Z,1.50
2019-05-30T19:54:54.884Z,1.30
2019-05-30T20:00:01.134Z,1.40
2019-05-30T20:05:07.617Z,1.10
2019-05-30T20:10:14.665Z,1.25
2019-05-30T20:15:21.187Z,1.10
2019-05-30T20:20:27.718Z,1.00
2019-05-30T20:25:34.484Z,1.12
2019-05-30T20:30:41.252Z,1.10
2019-05-30T20:35:47.593Z,1.20
2019-05-30T20:40:53.954Z,1.02
2019-05-30T20:46:00.184Z,1.20
2019-05-30T20:51:20.456Z,1.20
2019-05-30T20:56:14.854Z,1.35
2019-05-30T21:01:21.267Z,1.50
2019-05-30T21:06:38.798Z,1.57
2019-05-30T21:11:46.740Z,1.10
2019-05-30T21:16:54.056Z,1.77
2019-05-30T21:22:00.188Z,1.40
2019-05-30T21:27:06.931Z,1.75
2019-05-30T21:32:13.573Z,1.60
2019-05-30T21:37:20.256Z,1.60
2019-05-30T21:42:26.579Z,1.50
2019-05-30T21:47:32.805Z,1.35
2019-05-30T21:52:39.483Z,1.80
2019-05-30T21:57:46.090Z,1.40
2019-05-30T22:02:55.291Z,1.70
2019-05-30T22:08:01.964Z,1.30
2019-05-30T22:13:09.831Z,1.60
2019-05-30T22:18:15.830Z,1.50
2019-05-30T22:23:22.194Z,1.32
2019-05-30T22:28:28.600Z,1.30
2019-05-30T22:33:34.861Z,1.67
2019-05-30T22:38:40.962Z,1.47
2019-05-30T22:43:48.254Z,1.50
2019-05-30T22:48:54.454Z,1.87
2019-05-30T22:54:00.859Z,1.70
2019-05-30T22:59:07.391Z,1.77
2019-05-30T23:04:13.598Z,1.95
2019-05-30T23:09:19.726Z,1.67
2019-05-30T23:14:26.142Z,1.52
2019-05-30T23:19:32.614Z,1.70
2019-05-30T23:24:38.838Z,2.12
2019-05-30T23:29:45.271Z,2.15
2019-05-30T23:34:52.309Z,1.70
2019-05-30T23:39:59.019Z,2.10
2019-05-30T23:45:05.607Z,2.00
2019-05-30T23:50:12.529Z,1.90
2019-05-30T23:55:18.819Z,2.00
